Time;durP1;ratioP1;P1;durP2;ratioP2;P2;SDS_P1;SDS_P2;PMS_P1;PMS_P2;Temp;Humidity;BMP_temperature;BMP_pressure;BME280_temperature;BME280_humidity;BME280_pressure;Samples;Min_cycle;Max_cycle;Signal;HPM_P1;HPM_P2
2023/10/06 00:02:30;;;;;;;20.23;11.57;;;16.00;99.90;;;;;;5086019;29;20060;-76
2023/10/06 00:05:01;;;;;;;19.83;10.50;;;15.90;99.90;;;;;;5085857;29;20032;-76
2023/10/06 00:07:33;;;;;;;17.88;11.10;;;15.90;99.90;;;;;;5084301;29;20052;-76
2023/10/06 00:10:09;;;;;;;17.88;11.48;;;15.90;99.90;;;;;;5085888;29;20659;-76
2023/10/06 00:12:48;;;;;;;15.60;10.13;;;15.90;99.90;;;;;;5085272;29;20028;-75
2023/10/06 00:15:29;;;;;;;15.52;10.13;;;15.90;99.90;;;;;;5085253;29;20036;-76
2023/10/06 00:18:00;;;;;;;15.43;10.40;;;15.80;99.90;;;;;;5084426;29;20032;-76
2023/10/06 00:20:49;;;;;;;16.33;10.40;;;15.80;99.90;;;;;;5084176;29;20091;-76
2023/10/06 00:23:23;;;;;;;19.58;10.85;;;15.70;99.90;;;;;;5084140;29;20032;-77
2023/10/06 00:25:55;;;;;;;15.52;10.75;;;15.90;99.90;;;;;;5084280;29;20497;-76
2023/10/06 00:28:26;;;;;;;15.05;10.88;;;15.90;99.90;;;;;;5082925;29;20065;-76
2023/10/06 00:31:06;;;;;;;18.70;11.00;;;15.70;99.90;;;;;;5084500;29;20489;-76
2023/10/06 00:33:42;;;;;;;18.97;10.20;;;15.80;99.90;;;;;;5085382;29;20135;-76
2023/10/06 00:38:45;;;;;;;16.08;10.52;;;15.30;99.90;;;;;;5085394;29;20024;-77
2023/10/06 00:41:17;;;;;;;16.40;10.73;;;15.30;99.90;;;;;;5084166;29;20452;-75
2023/10/06 00:43:51;;;;;;;14.23;10.65;;;15.40;99.90;;;;;;5084081;29;20437;-73
2023/10/06 00:46:22;;;;;;;16.02;10.98;;;15.40;99.90;;;;;;5084689;29;20055;-75
2023/10/06 00:48:53;;;;;;;17.20;10.68;;;15.40;99.90;;;;;;5085652;29;20083;-74
2023/10/06 00:51:26;;;;;;;16.23;10.75;;;15.30;99.90;;;;;;5085404;29;20034;-73
2023/10/06 00:53:57;;;;;;;19.77;10.20;;;15.30;99.90;;;;;;5085250;29;20028;-75
2023/10/06 00:56:28;;;;;;;16.98;11.00;;;15.40;99.90;;;;;;5083967;29;20028;-74
2023/10/06 00:59:04;;;;;;;14.48;10.10;;;15.20;99.90;;;;;;5085251;29;20499;-74
2023/10/06 01:01:35;;;;;;;18.15;11.15;;;15.20;99.90;;;;;;5085601;29;20035;-75
2023/10/06 01:04:10;;;;;;;17.45;11.00;;;15.30;99.90;;;;;;5085299;29;20036;-74
2023/10/06 01:06:42;;;;;;;17.88;11.75;;;15.30;99.90;;;;;;5085300;29;20162;-73
2023/10/06 01:09:22;;;;;;;18.83;10.65;;;15.30;99.90;;;;;;5084401;29;20388;-76
2023/10/06 01:11:55;;;;;;;;;;;15.20;99.90;;;;;;5083874;29;20029;-74
2023/10/06 01:14:26;;;;;;;16.67;11.60;;;15.30;99.90;;;;;;5083566;29;20361;-77
2023/10/06 01:19:53;;;;;;;21.52;11.65;;;15.50;99.90;;;;;;5083542;29;20020;-77
2023/10/06 01:22:30;;;;;;;20.05;11.02;;;15.60;99.90;;;;;;5083506;29;20122;-77
2023/10/06 01:25:05;;;;;;;17.02;11.77;;;15.60;99.90;;;;;;5083511;29;20032;-76
2023/10/06 01:27:39;;;;;;;19.98;11.18;;;15.60;99.90;;;;;;5083965;29;20024;-75
2023/10/06 01:30:18;;;;;;;17.27;11.27;;;15.60;99.90;;;;;;5084642;29;20032;-76
2023/10/06 01:32:50;;;;;;;19.88;11.15;;;15.60;99.90;;;;;;5084239;29;20473;-76
2023/10/06 01:35:23;;;;;;;19.75;11.90;;;15.60;99.90;;;;;;5084483;29;20071;-77
2023/10/06 01:37:59;;;;;;;17.92;11.43;;;15.60;99.90;;;;;;5083397;29;20042;-73
2023/10/06 01:43:00;;;;;;;16.13;11.70;;;15.90;99.90;;;;;;5084433;29;20039;-73
2023/10/06 01:45:31;;;;;;;16.42;10.70;;;15.60;99.90;;;;;;5084537;29;20028;-75
2023/10/06 01:50:48;;;;;;;14.30;10.48;;;15.60;99.90;;;;;;5084576;29;20043;-77
2023/10/06 01:53:19;;;;;;;20.98;11.95;;;15.60;99.90;;;;;;5084325;29;20485;-75
2023/10/06 01:55:54;;;;;;;19.13;11.23;;;15.60;99.90;;;;;;5084437;29;20024;-74
2023/10/06 01:58:25;;;;;;;18.50;11.25;;;15.60;99.90;;;;;;5087071;29;20028;-77
2023/10/06 02:00:55;;;;;;;18.42;11.32;;;15.60;99.90;;;;;;5088230;29;20046;-76
2023/10/06 02:03:26;;;;;;;18.55;11.68;;;15.40;99.90;;;;;;5088138;29;20100;-76
2023/10/06 02:05:59;;;;;;;18.63;11.27;;;15.10;99.90;;;;;;5087076;29;20453;-74
2023/10/06 02:08:31;;;;;;;16.83;10.82;;;15.30;99.90;;;;;;5087363;29;20079;-78
2023/10/06 02:11:03;;;;;;;16.23;10.43;;;15.50;99.90;;;;;;5086986;29;20020;-75
2023/10/06 02:13:35;;;;;;;20.05;10.50;;;15.50;99.90;;;;;;5086627;29;20110;-76
2023/10/06 02:16:06;;;;;;;18.60;11.40;;;15.40;99.90;;;;;;5086522;29;20028;-78
2023/10/06 02:18:37;;;;;;;17.15;11.57;;;15.60;99.90;;;;;;5086379;29;20038;-75
2023/10/06 02:21:16;;;;;;;19.63;11.18;;;15.40;99.90;;;;;;5086558;29;20032;-76
2023/10/06 02:23:49;;;;;;;17.20;11.02;;;15.40;99.90;;;;;;5087149;29;20040;-75
2023/10/06 02:26:20;;;;;;;19.55;11.13;;;15.40;99.90;;;;;;5087675;29;20035;-74
2023/10/06 02:28:53;;;;;;;16.85;11.07;;;15.30;99.90;;;;;;5087357;29;20028;-76
2023/10/06 02:31:26;;;;;;;18.00;11.05;;;15.30;99.90;;;;;;5086214;29;20100;-76
2023/10/06 02:33:57;;;;;;;19.30;11.23;;;15.30;99.90;;;;;;5086043;29;20100;-77
2023/10/06 02:36:28;;;;;;;22.27;11.45;;;15.30;99.90;;;;;;5087488;29;20040;-73
2023/10/06 02:39:05;;;;;;;18.48;10.60;;;15.30;99.90;;;;;;5086314;29;20034;-76
2023/10/06 02:41:38;;;;;;;18.02;11.68;;;15.30;99.90;;;;;;5086201;29;20111;-75
2023/10/06 02:44:15;;;;;;;18.25;10.90;;;15.30;99.90;;;;;;5087443;29;20753;-76
2023/10/06 02:46:46;;;;;;;17.98;11.02;;;15.30;99.90;;;;;;5087389;29;20060;-76
2023/10/06 02:49:31;;;;;;;19.85;10.55;;;15.30;99.90;;;;;;5087483;29;20052;-75
2023/10/06 02:57:39;;;;;;;16.77;10.98;;;15.30;99.90;;;;;;5087212;29;20039;-73
2023/10/06 03:03:02;;;;;;;17.52;10.05;;;15.20;99.90;;;;;;5087113;29;20036;-76
2023/10/06 03:05:38;;;;;;;15.45;10.45;;;15.10;99.90;;;;;;5085683;29;20062;-77
2023/10/06 03:08:09;;;;;;;13.57;9.48;;;15.10;99.90;;;;;;5085284;29;20016;-75
2023/10/06 03:10:43;;;;;;;20.23;10.98;;;15.20;99.90;;;;;;5084987;29;20040;-76
2023/10/06 03:13:32;;;;;;;17.55;9.43;;;15.20;99.90;;;;;;5085472;29;20036;-74
2023/10/06 03:16:12;;;;;;;17.65;9.77;;;15.30;99.90;;;;;;5085513;29;20032;-74
2023/10/06 03:18:44;;;;;;;;;;;15.30;99.90;;;;;;5086088;29;20024;-76
2023/10/06 03:21:15;;;;;;;16.30;10.13;;;15.40;99.90;;;;;;5085463;29;19910;-73
2023/10/06 03:23:57;;;;;;;15.00;10.45;;;15.30;99.90;;;;;;5086709;29;20441;-76
2023/10/06 03:29:02;;;;;;;17.75;9.98;;;15.20;99.90;;;;;;5086726;29;20028;-76
2023/10/06 03:31:45;;;;;;;20.63;11.27;;;15.00;99.90;;;;;;5086298;29;20330;-75
2023/10/06 03:34:17;;;;;;;15.52;10.77;;;15.10;99.90;;;;;;5084974;29;20366;-76
2023/10/06 03:36:56;;;;;;;17.80;11.32;;;15.10;99.90;;;;;;5086285;29;20037;-74
2023/10/06 03:39:30;;;;;;;17.65;10.50;;;15.00;99.90;;;;;;5086306;29;20047;-75
2023/10/06 03:42:02;;;;;;;14.18;9.68;;;15.10;99.90;;;;;;5086313;29;20802;-76
2023/10/06 03:44:34;;;;;;;18.20;10.15;;;15.20;99.90;;;;;;5085194;29;20440;-76
2023/10/06 03:47:08;;;;;;;15.65;9.50;;;15.10;99.90;;;;;;5086576;29;20044;-77
2023/10/06 03:49:40;;;;;;;19.70;10.63;;;14.80;99.90;;;;;;5085336;29;20024;-78
2023/10/06 03:52:11;;;;;;;16.52;10.38;;;14.80;99.90;;;;;;5086398;29;20689;-74
2023/10/06 03:54:42;;;;;;;17.25;9.77;;;14.80;99.90;;;;;;5085870;29;20107;-76
2023/10/06 03:57:15;;;;;;;18.42;11.23;;;14.80;99.90;;;;;;5085020;29;20032;-73
2023/10/06 03:59:46;;;;;;;13.00;9.10;;;15.00;99.90;;;;;;5085551;29;20028;-77
2023/10/06 04:02:19;;;;;;;16.60;9.77;;;14.70;99.90;;;;;;5084678;29;20115;-75
2023/10/06 04:04:49;;;;;;;14.73;9.65;;;14.60;99.90;;;;;;5084406;29;20035;-76
2023/10/06 04:07:23;;;;;;;17.67;9.90;;;14.60;99.90;;;;;;5084302;29;20602;-74
2023/10/06 04:09:54;;;;;;;16.55;9.77;;;14.70;99.90;;;;;;5084563;29;20469;-77
2023/10/06 04:12:25;;;;;;;13.48;9.93;;;14.60;99.90;;;;;;5084345;29;20042;-76
2023/10/06 04:14:56;;;;;;;15.68;9.85;;;14.80;99.90;;;;;;5084455;29;20484;-76
2023/10/06 04:17:29;;;;;;;15.75;10.88;;;14.50;99.90;;;;;;5085590;29;20076;-75
2023/10/06 04:20:05;;;;;;;15.90;9.52;;;14.50;99.90;;;;;;5085501;29;20032;-73
2023/10/06 04:22:38;;;;;;;18.65;9.98;;;14.50;99.90;;;;;;5085566;29;20498;-76
2023/10/06 04:25:10;;;;;;;15.45;9.57;;;14.50;99.90;;;;;;5085376;29;20496;-74
2023/10/06 04:27:41;;;;;;;15.35;10.50;;;14.60;99.90;;;;;;5085451;29;20067;-76
2023/10/06 04:30:13;;;;;;;17.42;10.65;;;14.50;99.90;;;;;;5085420;29;20447;-76
2023/10/06 04:32:44;;;;;;;17.35;10.70;;;14.50;99.90;;;;;;5085301;29;20099;-74
2023/10/06 04:35:24;;;;;;;18.42;10.93;;;14.50;99.90;;;;;;5085200;29;20036;-75
2023/10/06 04:37:55;;;;;;;17.65;10.88;;;14.60;99.90;;;;;;5085450;29;20036;-75
2023/10/06 04:40:27;;;;;;;16.42;10.80;;;14.60;99.90;;;;;;5085171;29;20032;-77
2023/10/06 04:42:58;;;;;;;17.38;10.88;;;14.60;99.90;;;;;;5085148;29;20465;-76
2023/10/06 04:45:31;;;;;;;18.35;11.25;;;14.70;99.90;;;;;;5085131;29;20473;-74
2023/10/06 04:48:03;;;;;;;15.55;11.10;;;14.80;99.90;;;;;;5083649;29;20079;-75
2023/10/06 04:50:37;;;;;;;18.17;11.23;;;14.70;99.90;;;;;;5082203;29;20062;-78
2023/10/06 04:53:11;;;;;;;26.63;11.40;;;14.80;99.90;;;;;;5082286;29;20596;-75
2023/10/06 04:55:41;;;;;;;18.63;11.32;;;14.90;99.90;;;;;;5084689;29;20028;-77
2023/10/06 04:58:13;;;;;;;19.35;11.30;;;14.90;99.90;;;;;;5082034;29;20035;-76
2023/10/06 05:00:53;;;;;;;17.65;11.85;;;15.00;99.90;;;;;;5083917;29;20035;-75
2023/10/06 05:03:23;;;;;;;15.33;11.70;;;14.90;99.90;;;;;;5083832;29;20056;-75
2023/10/06 05:05:58;;;;;;;18.00;12.52;;;15.00;99.90;;;;;;5083385;29;20448;-76
2023/10/06 05:08:29;;;;;;;20.02;11.60;;;15.10;99.90;;;;;;5083772;29;20489;-76
2023/10/06 05:10:59;;;;;;;17.98;12.63;;;15.10;99.90;;;;;;5083946;29;20031;-74
2023/10/06 05:13:30;;;;;;;18.55;11.43;;;15.20;99.90;;;;;;5084808;29;20111;-75
2023/10/06 05:16:01;;;;;;;18.88;11.15;;;15.20;99.90;;;;;;5084678;29;20031;-77
2023/10/06 05:18:35;;;;;;;18.98;12.00;;;15.10;99.90;;;;;;5084926;29;20036;-76
2023/10/06 05:21:06;;;;;;;17.55;11.20;;;15.20;99.90;;;;;;5085150;29;20085;-74
2023/10/06 05:23:37;;;;;;;21.45;12.18;;;15.30;99.90;;;;;;5085210;29;20107;-76
2023/10/06 05:26:10;;;;;;;19.42;10.98;;;15.40;99.90;;;;;;5084891;29;20160;-74
2023/10/06 05:28:42;;;;;;;19.70;11.27;;;15.40;99.90;;;;;;5078609;29;20757;-73
2023/10/06 05:31:14;;;;;;;17.55;10.52;;;15.50;99.90;;;;;;5084588;29;20020;-75
2023/10/06 05:33:45;;;;;;;17.70;10.73;;;15.50;99.90;;;;;;5093787;29;20047;-74
2023/10/06 05:36:16;;;;;;;15.68;10.35;;;15.50;99.90;;;;;;5088181;29;20039;-73
2023/10/06 05:38:47;;;;;;;19.90;11.93;;;15.40;99.90;;;;;;5095148;29;20031;-76
2023/10/06 05:41:18;;;;;;;17.17;10.73;;;15.50;99.90;;;;;;5092238;29;20079;-75
2023/10/06 05:43:49;;;;;;;18.75;11.68;;;15.70;99.90;;;;;;5090762;29;20506;-75
2023/10/06 05:46:19;;;;;;;17.80;10.52;;;16.00;99.90;;;;;;5091657;29;20039;-75
2023/10/06 05:48:53;;;;;;;18.38;10.65;;;16.10;99.90;;;;;;5088165;29;20028;-76
2023/10/06 05:51:24;;;;;;;16.75;11.43;;;16.00;99.90;;;;;;5088471;29;20028;-74
2023/10/06 05:53:56;;;;;;;15.98;10.43;;;16.10;99.90;;;;;;5089986;29;20044;-74
2023/10/06 05:56:29;;;;;;;18.73;10.82;;;16.20;99.90;;;;;;5092455;29;20032;-76
2023/10/06 05:59:00;;;;;;;16.58;10.60;;;16.30;99.90;;;;;;5093355;29;20044;-75
2023/10/06 06:01:31;;;;;;;17.30;10.45;;;16.20;99.90;;;;;;5095094;29;20031;-75
2023/10/06 06:04:09;;;;;;;19.63;11.05;;;16.50;99.90;;;;;;5094612;29;20506;-76
2023/10/06 06:06:41;;;;;;;15.10;10.02;;;16.60;99.90;;;;;;5086965;29;20136;-76
2023/10/06 06:09:15;;;;;;;16.60;11.05;;;16.80;99.90;;;;;;5087314;29;20456;-75
2023/10/06 06:11:46;;;;;;;16.40;10.25;;;16.60;99.90;;;;;;5088344;29;20036;-76
2023/10/06 06:14:21;;;;;;;15.48;10.18;;;16.60;99.90;;;;;;5092303;29;20042;-78
2023/10/06 06:16:52;;;;;;;15.73;11.15;;;16.70;99.90;;;;;;5096621;29;20027;-77
2023/10/06 06:19:23;;;;;;;16.00;11.73;;;16.70;99.90;;;;;;5095301;29;20063;-74
2023/10/06 06:21:54;;;;;;;16.60;11.30;;;16.70;99.90;;;;;;5091530;29;20532;-74
2023/10/06 06:24:25;;;;;;;17.05;11.55;;;16.90;99.90;;;;;;5096157;29;20037;-76
2023/10/06 06:26:55;;;;;;;14.73;10.68;;;16.90;99.90;;;;;;5093828;29;20038;-74
2023/10/06 06:29:26;;;;;;;19.15;10.98;;;17.10;99.90;;;;;;5097824;29;20501;-77
2023/10/06 06:31:57;;;;;;;17.52;11.57;;;17.20;99.90;;;;;;5089070;29;20051;-74
2023/10/06 06:34:29;;;;;;;17.98;11.43;;;17.50;99.90;;;;;;5580043;23;20061;-76
2023/10/06 06:37:00;;;;;;;17.27;11.35;;;17.40;99.90;;;;;;5103607;28;20507;-78
2023/10/06 06:39:33;;;;;;;21.45;11.68;;;17.60;99.90;;;;;;5108740;28;20130;-74
2023/10/06 06:42:05;;;;;;;16.48;12.27;;;17.80;99.90;;;;;;5113409;28;20036;-74
2023/10/06 06:44:36;;;;;;;18.67;13.15;;;17.90;99.90;;;;;;5110658;28;20082;-75
2023/10/06 06:47:07;;;;;;;18.63;12.18;;;18.20;99.90;;;;;;5112735;28;20484;-76
2023/10/06 06:49:38;;;;;;;18.88;12.55;;;18.20;99.90;;;;;;5110573;28;20027;-74
2023/10/06 06:52:10;;;;;;;18.88;12.32;;;18.30;99.90;;;;;;5109945;28;20046;-75
2023/10/06 06:54:46;;;;;;;18.92;12.18;;;18.50;99.90;;;;;;5109061;28;20046;-75
2023/10/06 06:57:17;;;;;;;20.38;12.93;;;18.70;99.90;;;;;;5111412;28;20123;-76
2023/10/06 06:59:49;;;;;;;19.63;12.25;;;19.00;99.90;;;;;;5109478;28;20494;-74
2023/10/06 07:02:20;;;;;;;19.73;12.05;;;19.00;99.90;;;;;;5112984;28;20055;-78
2023/10/06 07:04:51;;;;;;;22.77;13.50;;;19.10;99.90;;;;;;5113610;28;20035;-75
2023/10/06 07:07:22;;;;;;;21.50;12.65;;;19.30;99.90;;;;;;5110989;28;20035;-79
2023/10/06 07:09:53;;;;;;;19.70;13.00;;;19.30;99.90;;;;;;5110110;28;20147;-75
2023/10/06 07:12:23;;;;;;;21.35;14.02;;;19.60;99.90;;;;;;5110752;28;20031;-79
2023/10/06 07:14:56;;;;;;;22.90;15.25;;;19.90;99.90;;;;;;5109070;29;20050;-79
2023/10/06 07:17:27;;;;;;;20.65;15.57;;;20.00;99.90;;;;;;5110606;28;20030;-75
2023/10/06 07:20:00;;;;;;;23.23;16.75;;;20.10;99.90;;;;;;5109675;28;20039;-76
2023/10/06 07:22:31;;;;;;;26.50;16.35;;;20.30;99.90;;;;;;5108979;28;20039;-79
2023/10/06 07:25:04;;;;;;;25.80;16.42;;;20.40;99.90;;;;;;5110788;28;20039;-79
2023/10/06 07:27:35;;;;;;;23.00;15.50;;;20.60;99.90;;;;;;5108471;28;20030;-77
2023/10/06 07:30:10;;;;;;;23.40;14.43;;;20.60;99.90;;;;;;5106407;28;20036;-78
2023/10/06 07:32:44;;;;;;;20.85;14.32;;;20.70;99.90;;;;;;5104393;28;20046;-76
2023/10/06 07:35:17;;;;;;;22.38;15.20;;;20.70;99.90;;;;;;5108819;28;20444;-76
2023/10/06 07:37:49;;;;;;;23.95;15.25;;;20.70;99.90;;;;;;5110855;28;20556;-77
2023/10/06 07:40:21;;;;;;;21.13;15.18;;;20.70;99.90;;;;;;5108288;28;20028;-76
2023/10/06 07:42:52;;;;;;;22.25;16.20;;;20.80;99.90;;;;;;5109299;28;20059;-76
2023/10/06 07:45:23;;;;;;;22.25;14.45;;;21.00;99.90;;;;;;5108125;28;20159;-76
2023/10/06 07:47:54;;;;;;;21.65;14.70;;;21.00;99.90;;;;;;5108049;29;20396;-78
2023/10/06 07:50:29;;;;;;;22.35;15.23;;;21.00;99.90;;;;;;5107944;28;20034;-74
2023/10/06 07:53:02;;;;;;;19.75;14.38;;;21.00;99.90;;;;;;5106861;29;20050;-76
2023/10/06 07:55:33;;;;;;;24.23;15.38;;;21.10;99.90;;;;;;5109423;28;20531;-77
2023/10/06 07:58:05;;;;;;;23.48;14.90;;;21.10;99.90;;;;;;5106863;28;20039;-78
2023/10/06 08:00:38;;;;;;;21.27;15.27;;;21.20;99.90;;;;;;5106702;29;21362;-76
2023/10/06 08:03:10;;;;;;;22.17;15.45;;;21.10;99.90;;;;;;5107788;28;20058;-76
2023/10/06 08:05:41;;;;;;;19.98;16.10;;;21.10;99.90;;;;;;5110583;28;20078;-75
2023/10/06 08:08:12;;;;;;;25.42;16.45;;;21.30;99.90;;;;;;5111417;28;20048;-75
2023/10/06 08:10:43;;;;;;;20.60;16.35;;;21.40;99.90;;;;;;5101975;28;20123;-76
2023/10/06 08:13:15;;;;;;;20.00;15.95;;;21.70;99.90;;;;;;5100802;28;20098;-73
2023/10/06 08:15:46;;;;;;;19.85;14.20;;;21.70;99.90;;;;;;5110888;28;20114;-74
2023/10/06 08:18:17;;;;;;;20.95;16.05;;;21.90;99.90;;;;;;5109406;28;20093;-73
2023/10/06 08:20:47;;;;;;;20.80;15.80;;;21.90;99.90;;;;;;5106949;28;20032;-73
2023/10/06 08:23:18;;;;;;;20.75;17.55;;;21.90;99.90;;;;;;5111775;28;20070;-73
2023/10/06 08:25:52;;;;;;;21.30;16.40;;;21.80;99.90;;;;;;5109250;29;20024;-74
2023/10/06 08:28:26;;;;;;;22.70;16.17;;;22.10;99.90;;;;;;5112858;28;20031;-73
2023/10/06 08:30:58;;;;;;;19.63;13.70;;;22.30;99.90;;;;;;5104542;28;20488;-74
2023/10/06 08:33:29;;;;;;;19.85;15.93;;;22.10;99.90;;;;;;5108152;28;20059;-73
2023/10/06 08:36:01;;;;;;;20.33;16.95;;;22.10;99.90;;;;;;5113208;28;20561;-72
2023/10/06 08:38:32;;;;;;;21.63;16.25;;;22.30;99.90;;;;;;5103763;28;20398;-72
2023/10/06 08:41:04;;;;;;;22.63;16.73;;;22.40;99.90;;;;;;5107629;29;20036;-76
2023/10/06 08:43:38;;;;;;;24.17;15.57;;;22.70;99.90;;;;;;5106081;28;20035;-74
2023/10/06 08:46:13;;;;;;;19.65;16.10;;;22.30;99.90;;;;;;5106457;28;20484;-74
2023/10/06 08:48:47;;;;;;;19.63;14.80;;;22.20;99.90;;;;;;5110486;28;20833;-75
2023/10/06 08:51:25;;;;;;;23.02;16.38;;;22.10;99.90;;;;;;5108813;28;20106;-75
2023/10/06 08:53:57;;;;;;;22.83;16.33;;;22.00;99.90;;;;;;5104269;28;20039;-73
2023/10/06 08:56:30;;;;;;;20.83;15.50;;;22.20;99.90;;;;;;5103360;28;20074;-75
2023/10/06 08:59:01;;;;;;;23.60;15.88;;;22.60;99.90;;;;;;5107199;28;20046;-77
2023/10/06 09:01:34;;;;;;;21.85;16.48;;;22.50;99.90;;;;;;5110231;28;20563;-75
2023/10/06 09:04:09;;;;;;;21.45;17.25;;;22.30;99.90;;;;;;5108929;28;20425;-73
2023/10/06 09:07:17;;;;;;;20.48;14.85;;;22.50;99.90;;;;;;5106663;28;20672;-76
2023/10/06 09:09:47;;;;;;;22.90;14.00;;;22.40;99.90;;;;;;5109762;28;20031;-77
2023/10/06 09:12:26;;;;;;;19.63;14.85;;;22.50;99.90;;;;;;5108700;28;20039;-76
2023/10/06 09:14:57;;;;;;;20.10;15.57;;;22.30;99.90;;;;;;5109229;28;20031;-77
2023/10/06 09:17:33;;;;;;;21.23;14.88;;;22.20;99.90;;;;;;5109703;28;20126;-77
2023/10/06 09:20:04;;;;;;;22.85;14.52;;;22.10;99.90;;;;;;5107656;28;20038;-76
2023/10/06 09:22:51;;;;;;;20.52;14.00;;;22.40;99.90;;;;;;5110905;28;21181;-76
2023/10/06 09:25:22;;;;;;;20.42;13.32;;;22.90;99.90;;;;;;5107297;28;20102;-74
2023/10/06 09:28:12;;;;;;;20.67;13.55;;;22.80;99.90;;;;;;5109066;28;20042;-75
2023/10/06 09:30:57;;;;;;;19.27;13.60;;;22.70;99.90;;;;;;5107956;28;20038;-75
2023/10/06 09:33:41;;;;;;;20.25;14.52;;;22.60;99.90;;;;;;5108465;28;20043;-73
2023/10/06 09:36:17;;;;;;;18.25;13.88;;;22.90;99.90;;;;;;5107250;28;20066;-75
2023/10/06 09:38:48;;;;;;;19.33;13.57;;;23.10;99.90;;;;;;5106280;29;20047;-75
2023/10/06 09:41:32;;;;;;;20.33;14.00;;;23.30;99.90;;;;;;5105332;29;20023;-74
2023/10/06 09:44:07;;;;;;;21.20;14.40;;;23.10;99.90;;;;;;5104168;28;20039;-75
2023/10/06 09:46:43;;;;;;;20.77;12.80;;;23.10;99.90;;;;;;5106241;29;20032;-74
2023/10/06 09:49:18;;;;;;;21.77;12.88;;;23.20;99.90;;;;;;5111351;28;20031;-75
2023/10/06 09:51:52;;;;;;;17.48;12.18;;;23.50;99.90;;;;;;5111422;28;20126;-76
2023/10/06 09:54:23;;;;;;;18.42;12.63;;;23.60;99.90;;;;;;5109788;28;20119;-76
2023/10/06 09:56:55;;;;;;;18.45;13.38;;;23.40;99.90;;;;;;5107110;28;20053;-75
2023/10/06 09:59:26;;;;;;;19.10;13.43;;;23.10;99.90;;;;;;5110571;28;20031;-77
2023/10/06 10:01:58;;;;;;;17.55;13.18;;;23.50;99.90;;;;;;5109197;28;20024;-74
2023/10/06 10:04:31;;;;;;;19.92;13.00;;;23.50;99.90;;;;;;5107388;28;20071;-76
2023/10/06 10:07:03;;;;;;;20.52;13.27;;;23.70;99.90;;;;;;5106018;28;20046;-74
2023/10/06 10:09:34;;;;;;;19.80;13.75;;;23.80;99.90;;;;;;5109848;29;20044;-74
2023/10/06 10:12:57;;;;;;;16.80;13.18;;;24.10;99.90;;;;;;5112408;29;20050;-73
2023/10/06 10:15:45;;;;;;;19.27;13.45;;;24.30;99.90;;;;;;5089134;28;20118;-74
2023/10/06 10:18:47;;;;;;;21.15;13.15;;;24.00;99.90;;;;;;5115296;28;20507;-76
2023/10/06 10:21:19;;;;;;;17.67;12.68;;;23.90;99.90;;;;;;5101459;28;20038;-75
2023/10/06 10:23:49;;;;;;;19.42;13.63;;;24.30;99.90;;;;;;5115120;28;20495;-74
2023/10/06 10:26:23;;;;;;;18.58;13.63;;;24.50;99.90;;;;;;5111510;28;20099;-77
2023/10/06 10:29:12;;;;;;;18.48;13.18;;;24.50;99.90;;;;;;5111327;28;20027;-77
2023/10/06 10:31:51;;;;;;;21.40;13.05;;;24.20;99.90;;;;;;5108593;29;20028;-76
2023/10/06 10:34:27;;;;;;;20.92;14.40;;;24.00;99.90;;;;;;5109873;28;20051;-77
2023/10/06 10:37:15;;;;;;;21.55;13.88;;;23.90;99.90;;;;;;5111982;28;20042;-77
2023/10/06 10:39:51;;;;;;;21.35;14.75;;;24.00;99.90;;;;;;5118360;28;20023;-75
2023/10/06 10:42:40;;;;;;;20.92;13.90;;;24.30;99.90;;;;;;5109323;28;20484;-76
2023/10/06 10:45:36;;;;;;;21.58;13.80;;;24.20;99.90;;;;;;5110260;28;20027;-76
2023/10/06 10:48:18;;;;;;;20.90;13.60;;;24.30;99.90;;;;;;5112929;28;20031;-76
2023/10/06 10:50:59;;;;;;;16.92;13.73;;;24.50;99.90;;;;;;5110806;29;20039;-75
2023/10/06 10:53:34;;;;;;;19.40;13.23;;;24.50;99.90;;;;;;5111971;28;21495;-75
2023/10/06 10:56:06;;;;;;;17.77;12.05;;;24.50;99.90;;;;;;5114157;28;20126;-75
2023/10/06 10:58:49;;;;;;;18.33;12.55;;;24.70;99.90;;;;;;5106103;29;20031;-75
2023/10/06 11:01:27;;;;;;;19.98;12.45;;;24.90;99.90;;;;;;5115375;28;20092;-75
2023/10/06 11:04:17;;;;;;;22.10;13.07;;;24.80;99.90;;;;;;5108464;28;20494;-75
2023/10/06 11:06:51;;;;;;;18.88;11.30;;;25.00;99.90;;;;;;5114934;28;20027;-75
2023/10/06 11:09:26;;;;;;;18.15;12.20;;;25.00;99.90;;;;;;5116144;28;20031;-75
2023/10/06 11:12:00;;;;;;;18.08;12.23;;;25.10;99.90;;;;;;5109757;28;20047;-75
2023/10/06 11:14:38;;;;;;;17.20;10.95;;;24.90;99.90;;;;;;5110000;28;20035;-76
2023/10/06 11:17:11;;;;;;;17.55;11.88;;;25.10;99.90;;;;;;5115101;28;20034;-75
2023/10/06 11:19:43;;;;;;;20.02;11.80;;;25.10;99.90;;;;;;5106575;29;20028;-75
2023/10/06 11:22:20;;;;;;;17.45;12.02;;;25.10;99.90;;;;;;5110378;28;20384;-75
2023/10/06 11:24:57;;;;;;;16.80;12.00;;;25.20;99.90;;;;;;5111279;28;20042;-75
2023/10/06 11:27:28;;;;;;;17.27;11.82;;;24.80;99.90;;;;;;5108799;28;20484;-74
2023/10/06 11:30:08;;;;;;;17.35;11.82;;;24.80;99.90;;;;;;5110223;28;20031;-76
2023/10/06 11:32:40;;;;;;;20.33;12.43;;;25.00;99.90;;;;;;5110337;28;20036;-75
2023/10/06 11:35:12;;;;;;;18.48;12.20;;;25.10;99.90;;;;;;5116218;28;20047;-74
2023/10/06 11:37:43;;;;;;;19.88;13.65;;;25.00;99.90;;;;;;5107683;28;20055;-74
2023/10/06 11:40:15;;;;;;;16.05;11.80;;;24.90;99.90;;;;;;5107886;29;20024;-73
2023/10/06 11:42:46;;;;;;;19.02;12.27;;;25.10;99.90;;;;;;5110203;28;20374;-74
2023/10/06 11:45:31;;;;;;;17.80;12.48;;;25.30;99.90;;;;;;5113411;28;20019;-74
2023/10/06 11:48:02;;;;;;;22.00;12.77;;;25.20;99.90;;;;;;5111555;28;20047;-74
2023/10/06 11:50:33;;;;;;;20.75;13.85;;;25.40;99.90;;;;;;5115089;28;20534;-73
2023/10/06 11:53:05;;;;;;;17.63;12.82;;;25.20;99.90;;;;;;5109594;28;20046;-74
2023/10/06 11:55:36;;;;;;;16.73;13.30;;;25.20;99.90;;;;;;5114797;28;20070;-75
2023/10/06 11:58:08;;;;;;;19.73;13.75;;;25.30;99.90;;;;;;5112158;28;20478;-74
2023/10/06 12:00:41;;;;;;;18.50;14.25;;;25.20;99.90;;;;;;5112473;28;20033;-73
2023/10/06 12:03:12;;;;;;;20.17;13.35;;;25.20;99.90;;;;;;5115339;28;20038;-74
2023/10/06 12:05:55;;;;;;;21.02;13.10;;;25.20;99.90;;;;;;5110179;29;20042;-74
2023/10/06 12:08:26;;;;;;;24.15;13.32;;;25.40;99.90;;;;;;5114397;29;20042;-74
2023/10/06 12:11:03;;;;;;;18.75;13.32;;;25.20;99.90;;;;;;5110351;28;20043;-75
2023/10/06 12:13:36;;;;;;;19.75;13.30;;;25.10;99.90;;;;;;5106565;29;20046;-72
2023/10/06 12:16:15;;;;;;;20.40;14.98;;;25.00;99.90;;;;;;5108513;28;20035;-73
2023/10/06 12:18:46;;;;;;;18.13;13.75;;;25.00;99.90;;;;;;5112485;28;20028;-74
2023/10/06 12:21:17;;;;;;;19.60;14.07;;;25.10;99.90;;;;;;5108912;29;20031;-73
2023/10/06 12:23:48;;;;;;;19.23;14.88;;;25.30;99.90;;;;;;5110776;28;20040;-74
2023/10/06 12:26:18;;;;;;;19.42;14.27;;;25.10;99.90;;;;;;5112734;28;20043;-73
2023/10/06 12:28:53;;;;;;;17.58;12.98;;;25.30;99.90;;;;;;5113732;28;20020;-74
2023/10/06 12:31:24;;;;;;;20.20;14.18;;;25.40;99.90;;;;;;5109244;28;20443;-72
2023/10/06 12:33:55;;;;;;;20.27;14.77;;;25.50;99.90;;;;;;5104537;28;20114;-74
2023/10/06 12:36:26;;;;;;;18.48;14.63;;;25.30;99.90;;;;;;5105703;29;20079;-75
2023/10/06 12:38:57;;;;;;;18.33;14.18;;;25.10;99.90;;;;;;5105566;29;20127;-74
2023/10/06 12:41:27;;;;;;;19.20;15.13;;;25.30;99.90;;;;;;5103549;28;20260;-74
2023/10/06 12:44:04;;;;;;;16.90;13.50;;;25.50;99.90;;;;;;5105533;28;20023;-75
2023/10/06 12:46:37;;;;;;;18.75;14.75;;;25.30;99.90;;;;;;5106595;28;20032;-75
2023/10/06 12:49:08;;;;;;;18.77;14.32;;;25.20;99.90;;;;;;5105233;29;20027;-74
2023/10/06 12:51:41;;;;;;;16.08;12.95;;;25.30;99.90;;;;;;5107140;28;20039;-74
2023/10/06 12:54:14;;;;;;;20.50;14.88;;;25.20;99.90;;;;;;5107069;28;20039;-74
2023/10/06 12:56:49;;;;;;;22.90;15.65;;;25.10;99.90;;;;;;5106203;29;20026;-73
2023/10/06 12:59:19;;;;;;;19.42;14.60;;;25.20;99.90;;;;;;5106055;28;20488;-76
2023/10/06 13:01:50;;;;;;;17.92;13.95;;;25.30;99.90;;;;;;5111233;28;20032;-73
2023/10/06 13:04:23;;;;;;;17.83;13.55;;;25.00;99.90;;;;;;5105891;28;20126;-75
2023/10/06 13:06:54;;;;;;;18.52;14.07;;;25.00;99.90;;;;;;5110170;28;20086;-76
2023/10/06 13:09:27;;;;;;;18.80;13.52;;;25.20;99.90;;;;;;5113898;28;20491;-76
2023/10/06 13:12:00;;;;;;;17.67;14.23;;;25.30;99.90;;;;;;5116010;28;20026;-76
2023/10/06 13:14:31;;;;;;;18.13;14.02;;;25.30;99.90;;;;;;5109973;28;20056;-76
2023/10/06 13:17:02;;;;;;;19.60;13.73;;;24.90;99.90;;;;;;5110355;28;20027;-76
2023/10/06 13:19:33;;;;;;;19.88;13.75;;;24.70;99.90;;;;;;5107895;28;20059;-76
2023/10/06 13:22:05;;;;;;;21.10;13.93;;;24.50;99.90;;;;;;5104902;28;20073;-77
2023/10/06 13:24:36;;;;;;;17.88;12.02;;;24.70;99.90;;;;;;5109553;28;20039;-76